Alleghany, Virginia
Current Conditions -  °F | °C
As of 11:35 PM on Saturday 20 Dec 2014 (Local Time) from KHSP Reporting Station
Overcast Overcast  
Wind Chill: 22°   Ceiling: 3200
Heat Index: 31°   Visibility: 10mi
Dew Point: 29°   Wind: 9mph
Humidity: 95%   Direction: 270°W
Pressure: 30.1"   Gusts: NA
Location:  37.7731°N, 80.0632°W
Report Text: KHSP 210435Z AUTO 27008KT 10SM OVC032 M01/M01 A3010 RMK AO2 T10081015
Loading
Personal Weather Stations






























Interactive Weather Map New forecast layout! Learn more

10-Day Weather Forecast

Advertisements
Track Severe Weather on mobile